Terminal Aerodrome Forecast
Issued by NWS

Home | Current Version | Previous Version | Text Only | Print | Product List | Glossary On
Versions: 1 2 3 4 5 6 7 8 9 10 11 12 13 14 15
000
FTAK31 PAJN 230350 AAB
TAFAJN
TAF AMD
PAJN 230350Z 2304/2324 08006KT P6SM -SHRA FEW004 SCT025 OVC035
      TEMPO 2304/2308 3SM SHRA BR SCT004 BKN025 OVC035
     FM231000 10007KT P6SM SCT020 OVC050
     FM232100 25008KT P6SM BKN050=

USA.gov is the U.S. government's official web portal to all federal, state and local government web resources and services.